Terminal Aerodrome Forecast
Issued by NWS

Home | Current Version | Previous Version | Text Only | Print | Product List | Glossary On
Versions: 1 2 3 4 5 6 7 8 9 10 11 12 13 14
000
FTUS46 KLOX 061100
TAFWJF
TAF
KWJF 061128Z 0612/0712 VRB03KT P6SM SKC
     FM061800 04008KT P6SM SKC
     FM062000 05014G22KT P6SM SKC
     FM070100 06008KT P6SM SKC
     FM070500 VRB03KT P6SM SKC=

USA.gov is the U.S. government's official web portal to all federal, state and local government web resources and services.